sensor_id;sensor_type;location;lat;lon;timestamp;P1;durP1;ratioP1;P2;durP2;ratioP2
13374;SDS011;6756;51.354;15.754;2024-03-25T00:02:47;5.23;;;4.03;;
13374;SDS011;6756;51.354;15.754;2024-03-25T00:06:49;4.70;;;3.93;;
13374;SDS011;6756;51.354;15.754;2024-03-25T00:10:50;4.43;;;3.90;;
13374;SDS011;6756;51.354;15.754;2024-03-25T00:14:50;4.90;;;4.33;;
13374;SDS011;6756;51.354;15.754;2024-03-25T00:18:51;4.83;;;3.90;;
13374;SDS011;6756;51.354;15.754;2024-03-25T00:22:52;5.43;;;4.23;;
13374;SDS011;6756;51.354;15.754;2024-03-25T00:26:53;5.77;;;4.10;;
13374;SDS011;6756;51.354;15.754;2024-03-25T00:30:53;7.13;;;4.47;;
13374;SDS011;6756;51.354;15.754;2024-03-25T00:34:54;3.57;;;2.97;;
13374;SDS011;6756;51.354;15.754;2024-03-25T00:38:55;5.93;;;3.27;;
13374;SDS011;6756;51.354;15.754;2024-03-25T00:42:55;3.97;;;3.40;;
13374;SDS011;6756;51.354;15.754;2024-03-25T00:46:57;4.57;;;3.37;;
13374;SDS011;6756;51.354;15.754;2024-03-25T00:50:58;5.63;;;3.20;;
13374;SDS011;6756;51.354;15.754;2024-03-25T00:54:58;4.07;;;3.07;;
13374;SDS011;6756;51.354;15.754;2024-03-25T00:58:59;5.00;;;3.03;;
13374;SDS011;6756;51.354;15.754;2024-03-25T01:03:02;4.70;;;3.50;;
13374;SDS011;6756;51.354;15.754;2024-03-25T01:07:03;4.30;;;3.60;;
13374;SDS011;6756;51.354;15.754;2024-03-25T01:11:04;4.07;;;3.67;;
13374;SDS011;6756;51.354;15.754;2024-03-25T01:15:06;5.17;;;3.87;;
13374;SDS011;6756;51.354;15.754;2024-03-25T01:19:07;4.60;;;3.77;;
13374;SDS011;6756;51.354;15.754;2024-03-25T01:23:08;4.50;;;3.77;;
13374;SDS011;6756;51.354;15.754;2024-03-25T01:27:09;4.97;;;3.77;;
13374;SDS011;6756;51.354;15.754;2024-03-25T01:31:11;3.77;;;3.30;;
13374;SDS011;6756;51.354;15.754;2024-03-25T01:35:11;4.23;;;3.60;;
13374;SDS011;6756;51.354;15.754;2024-03-25T01:39:12;4.50;;;3.70;;
13374;SDS011;6756;51.354;15.754;2024-03-25T01:43:13;4.30;;;3.90;;
13374;SDS011;6756;51.354;15.754;2024-03-25T01:47:14;4.03;;;3.37;;
13374;SDS011;6756;51.354;15.754;2024-03-25T01:51:17;3.33;;;3.03;;
13374;SDS011;6756;51.354;15.754;2024-03-25T01:55:20;3.50;;;2.93;;
13374;SDS011;6756;51.354;15.754;2024-03-25T01:59:23;3.50;;;3.13;;
13374;SDS011;6756;51.354;15.754;2024-03-25T02:03:24;3.77;;;3.10;;
13374;SDS011;6756;51.354;15.754;2024-03-25T02:07:25;4.00;;;2.80;;
13374;SDS011;6756;51.354;15.754;2024-03-25T02:11:27;3.57;;;2.93;;
13374;SDS011;6756;51.354;15.754;2024-03-25T02:15:28;3.57;;;2.53;;
13374;SDS011;6756;51.354;15.754;2024-03-25T02:19:29;3.77;;;2.30;;
13374;SDS011;6756;51.354;15.754;2024-03-25T02:23:31;2.57;;;2.37;;
13374;SDS011;6756;51.354;15.754;2024-03-25T02:27:35;2.60;;;2.17;;
13374;SDS011;6756;51.354;15.754;2024-03-25T02:31:36;4.20;;;2.20;;
13374;SDS011;6756;51.354;15.754;2024-03-25T02:35:37;3.53;;;2.40;;
13374;SDS011;6756;51.354;15.754;2024-03-25T02:39:39;2.23;;;1.90;;
13374;SDS011;6756;51.354;15.754;2024-03-25T02:43:40;3.00;;;2.47;;
13374;SDS011;6756;51.354;15.754;2024-03-25T02:47:41;3.53;;;2.00;;
13374;SDS011;6756;51.354;15.754;2024-03-25T02:51:43;3.70;;;2.10;;
13374;SDS011;6756;51.354;15.754;2024-03-25T02:55:44;2.57;;;1.90;;
13374;SDS011;6756;51.354;15.754;2024-03-25T02:59:45;2.40;;;2.07;;
13374;SDS011;6756;51.354;15.754;2024-03-25T03:03:45;3.17;;;2.53;;
13374;SDS011;6756;51.354;15.754;2024-03-25T03:07:46;2.80;;;2.40;;
13374;SDS011;6756;51.354;15.754;2024-03-25T03:11:47;2.30;;;2.10;;
13374;SDS011;6756;51.354;15.754;2024-03-25T03:15:47;2.30;;;2.07;;
13374;SDS011;6756;51.354;15.754;2024-03-25T03:19:48;2.43;;;2.03;;
13374;SDS011;6756;51.354;15.754;2024-03-25T03:23:49;3.23;;;2.53;;
13374;SDS011;6756;51.354;15.754;2024-03-25T03:27:49;2.23;;;1.97;;
13374;SDS011;6756;51.354;15.754;2024-03-25T03:31:53;2.30;;;1.93;;
13374;SDS011;6756;51.354;15.754;2024-03-25T03:35:54;3.17;;;2.70;;
13374;SDS011;6756;51.354;15.754;2024-03-25T03:39:56;3.20;;;2.40;;
13374;SDS011;6756;51.354;15.754;2024-03-25T03:43:57;3.13;;;2.57;;
13374;SDS011;6756;51.354;15.754;2024-03-25T03:47:57;3.60;;;2.60;;
13374;SDS011;6756;51.354;15.754;2024-03-25T03:51:58;3.73;;;2.83;;
13374;SDS011;6756;51.354;15.754;2024-03-25T03:56:00;3.10;;;2.77;;
13374;SDS011;6756;51.354;15.754;2024-03-25T04:00:02;3.57;;;2.60;;
13374;SDS011;6756;51.354;15.754;2024-03-25T04:04:03;3.40;;;2.90;;
13374;SDS011;6756;51.354;15.754;2024-03-25T04:08:05;3.90;;;2.93;;
13374;SDS011;6756;51.354;15.754;2024-03-25T04:12:06;2.97;;;2.67;;
13374;SDS011;6756;51.354;15.754;2024-03-25T04:16:07;3.33;;;2.63;;
13374;SDS011;6756;51.354;15.754;2024-03-25T04:20:08;3.63;;;2.60;;
13374;SDS011;6756;51.354;15.754;2024-03-25T04:24:10;3.07;;;2.60;;
13374;SDS011;6756;51.354;15.754;2024-03-25T04:28:11;2.13;;;1.73;;
13374;SDS011;6756;51.354;15.754;2024-03-25T04:32:12;2.03;;;1.63;;
13374;SDS011;6756;51.354;15.754;2024-03-25T04:36:13;1.20;;;1.10;;
13374;SDS011;6756;51.354;15.754;2024-03-25T04:40:14;1.30;;;1.07;;
13374;SDS011;6756;51.354;15.754;2024-03-25T04:44:14;1.03;;;0.87;;
13374;SDS011;6756;51.354;15.754;2024-03-25T04:48:15;1.40;;;1.20;;
13374;SDS011;6756;51.354;15.754;2024-03-25T04:52:16;1.37;;;1.10;;
13374;SDS011;6756;51.354;15.754;2024-03-25T04:56:16;1.27;;;1.10;;
13374;SDS011;6756;51.354;15.754;2024-03-25T05:00:18;1.40;;;1.30;;
13374;SDS011;6756;51.354;15.754;2024-03-25T05:04:18;1.30;;;1.20;;
13374;SDS011;6756;51.354;15.754;2024-03-25T05:08:20;1.80;;;1.60;;
13374;SDS011;6756;51.354;15.754;2024-03-25T05:12:21;2.30;;;1.73;;
13374;SDS011;6756;51.354;15.754;2024-03-25T05:16:21;1.70;;;1.60;;
13374;SDS011;6756;51.354;15.754;2024-03-25T05:20:22;1.90;;;1.70;;
13374;SDS011;6756;51.354;15.754;2024-03-25T05:24:24;1.70;;;1.40;;
13374;SDS011;6756;51.354;15.754;2024-03-25T05:28:24;1.67;;;1.47;;
13374;SDS011;6756;51.354;15.754;2024-03-25T05:32:25;3.33;;;1.80;;
13374;SDS011;6756;51.354;15.754;2024-03-25T05:36:26;1.47;;;1.00;;
13374;SDS011;6756;51.354;15.754;2024-03-25T05:40:27;1.57;;;1.07;;
13374;SDS011;6756;51.354;15.754;2024-03-25T05:44:27;1.33;;;1.23;;
13374;SDS011;6756;51.354;15.754;2024-03-25T05:48:28;1.77;;;1.30;;
13374;SDS011;6756;51.354;15.754;2024-03-25T05:52:32;1.60;;;1.30;;
13374;SDS011;6756;51.354;15.754;2024-03-25T05:56:33;1.63;;;1.40;;
13374;SDS011;6756;51.354;15.754;2024-03-25T06:00:34;2.23;;;1.60;;
13374;SDS011;6756;51.354;15.754;2024-03-25T06:04:35;2.87;;;1.73;;
13374;SDS011;6756;51.354;15.754;2024-03-25T06:08:35;4.03;;;2.53;;
13374;SDS011;6756;51.354;15.754;2024-03-25T06:12:37;2.93;;;2.70;;
13374;SDS011;6756;51.354;15.754;2024-03-25T06:16:38;2.90;;;2.60;;
13374;SDS011;6756;51.354;15.754;2024-03-25T06:20:38;2.13;;;1.90;;
13374;SDS011;6756;51.354;15.754;2024-03-25T06:24:39;3.00;;;1.90;;
13374;SDS011;6756;51.354;15.754;2024-03-25T06:28:41;2.47;;;1.80;;
13374;SDS011;6756;51.354;15.754;2024-03-25T06:32:42;1.90;;;1.70;;
13374;SDS011;6756;51.354;15.754;2024-03-25T06:37:02;3.97;;;1.77;;
13374;SDS011;6756;51.354;15.754;2024-03-25T06:41:04;2.20;;;2.00;;
13374;SDS011;6756;51.354;15.754;2024-03-25T06:45:05;1.93;;;1.70;;
13374;SDS011;6756;51.354;15.754;2024-03-25T06:49:06;2.93;;;2.10;;
13374;SDS011;6756;51.354;15.754;2024-03-25T06:53:06;1.50;;;1.40;;
13374;SDS011;6756;51.354;15.754;2024-03-25T06:57:07;1.23;;;1.13;;
13374;SDS011;6756;51.354;15.754;2024-03-25T07:01:08;1.53;;;1.43;;
13374;SDS011;6756;51.354;15.754;2024-03-25T07:05:12;1.83;;;1.00;;
13374;SDS011;6756;51.354;15.754;2024-03-25T07:09:12;1.53;;;1.20;;
13374;SDS011;6756;51.354;15.754;2024-03-25T07:13:13;1.30;;;1.00;;
13374;SDS011;6756;51.354;15.754;2024-03-25T07:17:14;1.20;;;0.90;;
13374;SDS011;6756;51.354;15.754;2024-03-25T07:21:15;2.13;;;1.00;;
13374;SDS011;6756;51.354;15.754;2024-03-25T07:25:15;1.10;;;1.00;;
13374;SDS011;6756;51.354;15.754;2024-03-25T07:29:16;1.80;;;1.10;;
13374;SDS011;6756;51.354;15.754;2024-03-25T07:33:17;1.60;;;1.20;;
13374;SDS011;6756;51.354;15.754;2024-03-25T07:37:18;1.70;;;1.33;;
13374;SDS011;6756;51.354;15.754;2024-03-25T07:41:19;2.03;;;1.30;;
13374;SDS011;6756;51.354;15.754;2024-03-25T07:45:19;2.00;;;1.80;;
13374;SDS011;6756;51.354;15.754;2024-03-25T07:49:20;2.20;;;1.70;;
13374;SDS011;6756;51.354;15.754;2024-03-25T07:53:21;1.83;;;1.47;;
13374;SDS011;6756;51.354;15.754;2024-03-25T07:57:22;2.10;;;1.70;;
13374;SDS011;6756;51.354;15.754;2024-03-25T08:01:22;2.37;;;1.70;;
13374;SDS011;6756;51.354;15.754;2024-03-25T08:05:23;3.17;;;1.77;;
13374;SDS011;6756;51.354;15.754;2024-03-25T08:09:24;2.43;;;1.70;;
13374;SDS011;6756;51.354;15.754;2024-03-25T08:13:25;3.63;;;1.90;;
13374;SDS011;6756;51.354;15.754;2024-03-25T08:17:27;2.37;;;1.60;;
13374;SDS011;6756;51.354;15.754;2024-03-25T08:21:27;2.67;;;1.80;;
13374;SDS011;6756;51.354;15.754;2024-03-25T08:25:28;2.17;;;1.80;;
13374;SDS011;6756;51.354;15.754;2024-03-25T08:29:29;3.07;;;2.10;;
13374;SDS011;6756;51.354;15.754;2024-03-25T08:33:30;3.87;;;1.70;;
13374;SDS011;6756;51.354;15.754;2024-03-25T08:37:30;3.53;;;2.27;;
13374;SDS011;6756;51.354;15.754;2024-03-25T08:41:31;3.80;;;2.13;;
13374;SDS011;6756;51.354;15.754;2024-03-25T08:45:32;2.80;;;2.43;;
13374;SDS011;6756;51.354;15.754;2024-03-25T08:49:33;2.70;;;2.23;;
13374;SDS011;6756;51.354;15.754;2024-03-25T08:53:34;2.63;;;2.40;;
13374;SDS011;6756;51.354;15.754;2024-03-25T08:57:35;2.70;;;2.37;;
13374;SDS011;6756;51.354;15.754;2024-03-25T09:01:35;2.27;;;2.00;;
13374;SDS011;6756;51.354;15.754;2024-03-25T09:05:36;3.10;;;2.10;;
13374;SDS011;6756;51.354;15.754;2024-03-25T09:09:40;2.17;;;1.97;;
13374;SDS011;6756;51.354;15.754;2024-03-25T09:13:59;2.67;;;2.43;;
13374;SDS011;6756;51.354;15.754;2024-03-25T09:18:02;2.60;;;2.27;;
13374;SDS011;6756;51.354;15.754;2024-03-25T09:22:03;3.20;;;2.40;;
13374;SDS011;6756;51.354;15.754;2024-03-25T09:26:04;3.30;;;3.00;;
13374;SDS011;6756;51.354;15.754;2024-03-25T09:30:05;3.60;;;3.00;;
13374;SDS011;6756;51.354;15.754;2024-03-25T09:34:07;4.40;;;3.30;;
13374;SDS011;6756;51.354;15.754;2024-03-25T09:38:08;3.70;;;2.83;;
13374;SDS011;6756;51.354;15.754;2024-03-25T09:42:09;4.10;;;2.90;;
13374;SDS011;6756;51.354;15.754;2024-03-25T09:46:14;2.83;;;2.40;;
13374;SDS011;6756;51.354;15.754;2024-03-25T09:50:16;3.03;;;2.70;;
13374;SDS011;6756;51.354;15.754;2024-03-25T09:54:19;3.80;;;2.63;;
13374;SDS011;6756;51.354;15.754;2024-03-25T09:58:20;6.10;;;2.93;;
13374;SDS011;6756;51.354;15.754;2024-03-25T10:02:21;2.43;;;2.10;;
13374;SDS011;6756;51.354;15.754;2024-03-25T10:06:26;4.07;;;3.23;;
13374;SDS011;6756;51.354;15.754;2024-03-25T10:10:27;4.50;;;3.67;;
13374;SDS011;6756;51.354;15.754;2024-03-25T10:14:28;6.23;;;4.10;;
13374;SDS011;6756;51.354;15.754;2024-03-25T10:18:28;5.27;;;4.47;;
13374;SDS011;6756;51.354;15.754;2024-03-25T10:22:29;6.33;;;4.40;;
13374;SDS011;6756;51.354;15.754;2024-03-25T10:26:33;5.43;;;3.90;;
13374;SDS011;6756;51.354;15.754;2024-03-25T10:30:37;5.87;;;4.27;;
13374;SDS011;6756;51.354;15.754;2024-03-25T10:34:38;5.53;;;4.37;;
13374;SDS011;6756;51.354;15.754;2024-03-25T10:38:39;5.53;;;3.93;;
13374;SDS011;6756;51.354;15.754;2024-03-25T10:42:39;4.73;;;3.13;;
13374;SDS011;6756;51.354;15.754;2024-03-25T10:46:42;3.60;;;2.80;;
13374;SDS011;6756;51.354;15.754;2024-03-25T10:50:44;3.13;;;2.63;;
13374;SDS011;6756;51.354;15.754;2024-03-25T10:54:49;5.97;;;2.93;;
13374;SDS011;6756;51.354;15.754;2024-03-25T10:58:50;3.30;;;3.00;;
13374;SDS011;6756;51.354;15.754;2024-03-25T11:02:52;4.10;;;3.17;;
13374;SDS011;6756;51.354;15.754;2024-03-25T11:06:53;6.13;;;4.07;;
13374;SDS011;6756;51.354;15.754;2024-03-25T11:10:55;7.33;;;3.93;;
13374;SDS011;6756;51.354;15.754;2024-03-25T11:15:00;4.77;;;3.90;;
13374;SDS011;6756;51.354;15.754;2024-03-25T11:19:02;7.27;;;4.27;;
13374;SDS011;6756;51.354;15.754;2024-03-25T11:23:07;5.50;;;4.07;;
13374;SDS011;6756;51.354;15.754;2024-03-25T11:27:12;5.83;;;3.80;;
13374;SDS011;6756;51.354;15.754;2024-03-25T11:31:14;4.33;;;3.73;;
13374;SDS011;6756;51.354;15.754;2024-03-25T11:35:16;11.30;;;3.40;;
13374;SDS011;6756;51.354;15.754;2024-03-25T11:39:18;4.50;;;3.33;;
13374;SDS011;6756;51.354;15.754;2024-03-25T11:43:19;3.47;;;3.10;;
13374;SDS011;6756;51.354;15.754;2024-03-25T11:47:22;5.50;;;3.30;;
13374;SDS011;6756;51.354;15.754;2024-03-25T11:51:23;3.60;;;2.93;;
13374;SDS011;6756;51.354;15.754;2024-03-25T11:55:24;4.00;;;3.00;;
13374;SDS011;6756;51.354;15.754;2024-03-25T11:59:25;5.23;;;2.77;;
13374;SDS011;6756;51.354;15.754;2024-03-25T12:03:26;2.60;;;2.40;;
13374;SDS011;6756;51.354;15.754;2024-03-25T12:07:30;2.87;;;2.60;;
13374;SDS011;6756;51.354;15.754;2024-03-25T12:11:31;3.63;;;2.30;;
13374;SDS011;6756;51.354;15.754;2024-03-25T12:15:35;3.43;;;2.67;;
13374;SDS011;6756;51.354;15.754;2024-03-25T12:19:36;4.33;;;2.70;;
13374;SDS011;6756;51.354;15.754;2024-03-25T12:23:36;3.57;;;2.40;;
13374;SDS011;6756;51.354;15.754;2024-03-25T12:27:38;4.97;;;2.43;;
13374;SDS011;6756;51.354;15.754;2024-03-25T12:31:40;5.03;;;3.30;;
13374;SDS011;6756;51.354;15.754;2024-03-25T12:35:41;3.40;;;2.70;;
13374;SDS011;6756;51.354;15.754;2024-03-25T12:39:48;4.43;;;2.63;;
13374;SDS011;6756;51.354;15.754;2024-03-25T12:43:50;4.40;;;3.00;;
13374;SDS011;6756;51.354;15.754;2024-03-25T12:47:51;3.70;;;2.73;;
13374;SDS011;6756;51.354;15.754;2024-03-25T12:51:52;3.50;;;2.17;;
13374;SDS011;6756;51.354;15.754;2024-03-25T12:55:52;3.63;;;2.27;;
13374;SDS011;6756;51.354;15.754;2024-03-25T12:59:53;2.77;;;2.30;;
13374;SDS011;6756;51.354;15.754;2024-03-25T13:03:54;3.67;;;2.13;;
13374;SDS011;6756;51.354;15.754;2024-03-25T13:07:54;2.20;;;1.83;;
13374;SDS011;6756;51.354;15.754;2024-03-25T13:11:56;3.27;;;2.57;;
13374;SDS011;6756;51.354;15.754;2024-03-25T13:15:57;2.47;;;1.80;;
13374;SDS011;6756;51.354;15.754;2024-03-25T13:19:58;3.43;;;1.60;;
13374;SDS011;6756;51.354;15.754;2024-03-25T13:23:59;2.77;;;1.73;;
13374;SDS011;6756;51.354;15.754;2024-03-25T13:28:00;3.00;;;2.10;;
13374;SDS011;6756;51.354;15.754;2024-03-25T13:32:01;3.83;;;2.10;;
13374;SDS011;6756;51.354;15.754;2024-03-25T13:36:03;3.10;;;2.47;;
13374;SDS011;6756;51.354;15.754;2024-03-25T13:40:07;5.53;;;2.63;;
13374;SDS011;6756;51.354;15.754;2024-03-25T13:44:09;3.40;;;2.43;;
13374;SDS011;6756;51.354;15.754;2024-03-25T13:48:09;2.53;;;2.00;;
13374;SDS011;6756;51.354;15.754;2024-03-25T13:52:10;2.27;;;1.60;;
13374;SDS011;6756;51.354;15.754;2024-03-25T13:56:11;2.00;;;1.63;;
13374;SDS011;6756;51.354;15.754;2024-03-25T14:00:11;1.57;;;1.40;;
13374;SDS011;6756;51.354;15.754;2024-03-25T14:04:14;1.37;;;1.20;;
13374;SDS011;6756;51.354;15.754;2024-03-25T14:08:15;3.03;;;1.47;;
13374;SDS011;6756;51.354;15.754;2024-03-25T14:12:16;1.50;;;1.40;;
13374;SDS011;6756;51.354;15.754;2024-03-25T14:16:17;2.70;;;1.57;;
13374;SDS011;6756;51.354;15.754;2024-03-25T14:20:18;2.63;;;2.03;;
13374;SDS011;6756;51.354;15.754;2024-03-25T14:24:19;3.33;;;1.90;;
13374;SDS011;6756;51.354;15.754;2024-03-25T14:28:19;2.50;;;1.90;;
13374;SDS011;6756;51.354;15.754;2024-03-25T14:32:20;3.60;;;2.00;;
13374;SDS011;6756;51.354;15.754;2024-03-25T14:36:22;4.50;;;2.50;;
13374;SDS011;6756;51.354;15.754;2024-03-25T14:40:23;3.43;;;2.30;;
13374;SDS011;6756;51.354;15.754;2024-03-25T14:44:24;4.33;;;2.30;;
13374;SDS011;6756;51.354;15.754;2024-03-25T14:48:24;4.13;;;2.87;;
13374;SDS011;6756;51.354;15.754;2024-03-25T14:52:25;3.43;;;2.23;;
13374;SDS011;6756;51.354;15.754;2024-03-25T14:56:26;3.80;;;2.23;;
13374;SDS011;6756;51.354;15.754;2024-03-25T15:00:27;4.13;;;2.10;;
13374;SDS011;6756;51.354;15.754;2024-03-25T15:04:27;2.33;;;1.80;;
13374;SDS011;6756;51.354;15.754;2024-03-25T15:08:33;2.87;;;1.97;;
13374;SDS011;6756;51.354;15.754;2024-03-25T15:12:34;3.30;;;1.90;;
13374;SDS011;6756;51.354;15.754;2024-03-25T15:16:35;4.20;;;2.30;;
13374;SDS011;6756;51.354;15.754;2024-03-25T15:20:35;3.40;;;1.93;;
13374;SDS011;6756;51.354;15.754;2024-03-25T15:29:33;2.57;;;2.07;;
13374;SDS011;6756;51.354;15.754;2024-03-25T15:33:33;3.13;;;2.00;;
13374;SDS011;6756;51.354;15.754;2024-03-25T15:37:34;2.50;;;2.27;;
13374;SDS011;6756;51.354;15.754;2024-03-25T15:41:35;2.90;;;2.33;;
13374;SDS011;6756;51.354;15.754;2024-03-25T15:45:35;2.00;;;1.80;;
13374;SDS011;6756;51.354;15.754;2024-03-25T15:49:36;2.37;;;2.03;;
13374;SDS011;6756;51.354;15.754;2024-03-25T15:53:38;3.83;;;2.67;;
13374;SDS011;6756;51.354;15.754;2024-03-25T15:57:39;2.57;;;2.10;;
13374;SDS011;6756;51.354;15.754;2024-03-25T16:01:40;3.80;;;2.33;;
13374;SDS011;6756;51.354;15.754;2024-03-25T16:05:40;3.77;;;1.97;;
13374;SDS011;6756;51.354;15.754;2024-03-25T16:09:41;3.13;;;2.10;;
13374;SDS011;6756;51.354;15.754;2024-03-25T16:13:42;3.13;;;2.00;;
13374;SDS011;6756;51.354;15.754;2024-03-25T16:17:43;2.40;;;1.90;;
13374;SDS011;6756;51.354;15.754;2024-03-25T16:21:44;2.90;;;2.23;;
13374;SDS011;6756;51.354;15.754;2024-03-25T16:25:45;2.70;;;2.20;;
13374;SDS011;6756;51.354;15.754;2024-03-25T16:29:46;2.33;;;1.73;;
13374;SDS011;6756;51.354;15.754;2024-03-25T16:33:47;5.23;;;1.80;;
13374;SDS011;6756;51.354;15.754;2024-03-25T16:37:48;4.37;;;2.00;;
13374;SDS011;6756;51.354;15.754;2024-03-25T16:41:50;2.40;;;1.93;;
13374;SDS011;6756;51.354;15.754;2024-03-25T16:45:51;2.90;;;1.60;;
13374;SDS011;6756;51.354;15.754;2024-03-25T16:49:52;1.93;;;1.80;;
13374;SDS011;6756;51.354;15.754;2024-03-25T16:53:53;2.73;;;1.90;;
13374;SDS011;6756;51.354;15.754;2024-03-25T16:57:53;2.00;;;1.60;;
13374;SDS011;6756;51.354;15.754;2024-03-25T17:01:54;1.60;;;1.40;;
13374;SDS011;6756;51.354;15.754;2024-03-25T17:05:55;3.20;;;1.60;;
13374;SDS011;6756;51.354;15.754;2024-03-25T17:09:56;2.00;;;1.60;;
13374;SDS011;6756;51.354;15.754;2024-03-25T17:13:56;2.03;;;1.60;;
13374;SDS011;6756;51.354;15.754;2024-03-25T17:17:57;2.80;;;1.60;;
13374;SDS011;6756;51.354;15.754;2024-03-25T17:22:07;2.70;;;1.97;;
13374;SDS011;6756;51.354;15.754;2024-03-25T17:26:08;2.13;;;1.47;;
13374;SDS011;6756;51.354;15.754;2024-03-25T17:30:08;2.07;;;1.87;;
13374;SDS011;6756;51.354;15.754;2024-03-25T17:34:09;2.77;;;1.77;;
13374;SDS011;6756;51.354;15.754;2024-03-25T17:38:10;1.80;;;1.70;;
13374;SDS011;6756;51.354;15.754;2024-03-25T17:42:11;2.17;;;1.67;;
13374;SDS011;6756;51.354;15.754;2024-03-25T17:46:13;2.90;;;1.73;;
13374;SDS011;6756;51.354;15.754;2024-03-25T17:50:13;2.10;;;1.90;;
13374;SDS011;6756;51.354;15.754;2024-03-25T17:54:16;2.30;;;2.00;;
13374;SDS011;6756;51.354;15.754;2024-03-25T17:58:17;1.70;;;1.60;;
13374;SDS011;6756;51.354;15.754;2024-03-25T18:02:18;1.67;;;1.57;;
13374;SDS011;6756;51.354;15.754;2024-03-25T18:06:20;1.73;;;1.63;;
13374;SDS011;6756;51.354;15.754;2024-03-25T18:10:21;2.90;;;1.80;;
13374;SDS011;6756;51.354;15.754;2024-03-25T18:14:22;2.10;;;1.80;;
13374;SDS011;6756;51.354;15.754;2024-03-25T18:18:23;2.10;;;1.77;;
13374;SDS011;6756;51.354;15.754;2024-03-25T18:22:23;1.80;;;1.70;;
13374;SDS011;6756;51.354;15.754;2024-03-25T18:26:24;2.10;;;1.90;;
13374;SDS011;6756;51.354;15.754;2024-03-25T18:30:25;2.10;;;1.80;;
13374;SDS011;6756;51.354;15.754;2024-03-25T18:34:26;4.83;;;2.60;;
13374;SDS011;6756;51.354;15.754;2024-03-25T18:38:26;2.27;;;2.07;;
13374;SDS011;6756;51.354;15.754;2024-03-25T18:42:27;3.07;;;2.40;;
13374;SDS011;6756;51.354;15.754;2024-03-25T18:46:28;4.63;;;3.40;;
13374;SDS011;6756;51.354;15.754;2024-03-25T18:50:29;3.10;;;2.70;;
13374;SDS011;6756;51.354;15.754;2024-03-25T18:54:30;3.10;;;2.70;;
13374;SDS011;6756;51.354;15.754;2024-03-25T18:58:31;3.20;;;2.67;;
13374;SDS011;6756;51.354;15.754;2024-03-25T19:02:32;3.03;;;2.50;;
13374;SDS011;6756;51.354;15.754;2024-03-25T19:06:37;3.53;;;2.57;;
13374;SDS011;6756;51.354;15.754;2024-03-25T19:10:38;2.70;;;2.30;;
13374;SDS011;6756;51.354;15.754;2024-03-25T19:14:39;3.03;;;2.70;;
13374;SDS011;6756;51.354;15.754;2024-03-25T19:18:40;5.03;;;3.17;;
13374;SDS011;6756;51.354;15.754;2024-03-25T19:22:40;3.80;;;2.70;;
13374;SDS011;6756;51.354;15.754;2024-03-25T19:26:41;3.37;;;3.00;;
13374;SDS011;6756;51.354;15.754;2024-03-25T19:30:42;3.63;;;2.63;;
13374;SDS011;6756;51.354;15.754;2024-03-25T19:34:43;4.40;;;2.27;;
13374;SDS011;6756;51.354;15.754;2024-03-25T19:38:43;2.63;;;2.33;;
13374;SDS011;6756;51.354;15.754;2024-03-25T19:42:46;3.87;;;2.73;;
13374;SDS011;6756;51.354;15.754;2024-03-25T19:46:49;3.43;;;2.73;;
13374;SDS011;6756;51.354;15.754;2024-03-25T19:50:50;4.77;;;3.23;;
13374;SDS011;6756;51.354;15.754;2024-03-25T19:54:51;4.00;;;2.70;;
13374;SDS011;6756;51.354;15.754;2024-03-25T19:58:51;6.30;;;3.13;;
13374;SDS011;6756;51.354;15.754;2024-03-25T20:02:53;5.20;;;3.20;;
13374;SDS011;6756;51.354;15.754;2024-03-25T20:06:54;4.20;;;3.03;;
13374;SDS011;6756;51.354;15.754;2024-03-25T20:10:57;3.97;;;2.83;;
13374;SDS011;6756;51.354;15.754;2024-03-25T20:14:59;3.60;;;2.67;;
13374;SDS011;6756;51.354;15.754;2024-03-25T20:19:01;3.90;;;2.90;;
13374;SDS011;6756;51.354;15.754;2024-03-25T20:23:02;5.37;;;2.97;;
13374;SDS011;6756;51.354;15.754;2024-03-25T20:27:04;4.53;;;3.20;;
13374;SDS011;6756;51.354;15.754;2024-03-25T20:31:04;4.50;;;3.43;;
13374;SDS011;6756;51.354;15.754;2024-03-25T20:35:06;7.50;;;4.33;;
13374;SDS011;6756;51.354;15.754;2024-03-25T20:39:07;7.40;;;4.97;;
13374;SDS011;6756;51.354;15.754;2024-03-25T20:43:07;6.70;;;5.03;;
13374;SDS011;6756;51.354;15.754;2024-03-25T20:47:08;9.40;;;5.67;;
13374;SDS011;6756;51.354;15.754;2024-03-25T20:51:09;11.40;;;7.20;;
13374;SDS011;6756;51.354;15.754;2024-03-25T20:55:10;19.40;;;10.57;;
13374;SDS011;6756;51.354;15.754;2024-03-25T20:59:10;19.93;;;11.07;;
13374;SDS011;6756;51.354;15.754;2024-03-25T21:03:11;18.53;;;9.93;;
13374;SDS011;6756;51.354;15.754;2024-03-25T21:07:12;14.97;;;7.83;;
13374;SDS011;6756;51.354;15.754;2024-03-25T21:11:13;10.77;;;6.70;;
13374;SDS011;6756;51.354;15.754;2024-03-25T21:15:14;11.00;;;6.27;;
13374;SDS011;6756;51.354;15.754;2024-03-25T21:19:14;13.97;;;8.10;;
13374;SDS011;6756;51.354;15.754;2024-03-25T21:23:15;15.13;;;9.20;;
13374;SDS011;6756;51.354;15.754;2024-03-25T21:27:16;15.60;;;8.47;;
13374;SDS011;6756;51.354;15.754;2024-03-25T21:31:17;18.37;;;10.00;;
13374;SDS011;6756;51.354;15.754;2024-03-25T21:35:18;15.60;;;9.03;;
13374;SDS011;6756;51.354;15.754;2024-03-25T21:39:18;14.40;;;8.47;;
13374;SDS011;6756;51.354;15.754;2024-03-25T21:43:19;18.23;;;9.70;;
13374;SDS011;6756;51.354;15.754;2024-03-25T21:47:23;14.20;;;8.77;;
13374;SDS011;6756;51.354;15.754;2024-03-25T21:51:24;17.03;;;10.13;;
13374;SDS011;6756;51.354;15.754;2024-03-25T21:55:25;17.40;;;10.33;;
13374;SDS011;6756;51.354;15.754;2024-03-25T21:59:26;15.93;;;10.33;;
13374;SDS011;6756;51.354;15.754;2024-03-25T22:03:26;22.77;;;11.70;;
13374;SDS011;6756;51.354;15.754;2024-03-25T22:07:27;43.23;;;19.03;;
13374;SDS011;6756;51.354;15.754;2024-03-25T22:11:28;29.50;;;14.17;;
13374;SDS011;6756;51.354;15.754;2024-03-25T22:15:29;24.27;;;11.67;;
13374;SDS011;6756;51.354;15.754;2024-03-25T22:19:30;17.77;;;10.53;;
13374;SDS011;6756;51.354;15.754;2024-03-25T22:23:31;22.20;;;10.97;;
13374;SDS011;6756;51.354;15.754;2024-03-25T22:27:31;29.77;;;13.57;;
13374;SDS011;6756;51.354;15.754;2024-03-25T22:31:33;24.13;;;12.63;;
13374;SDS011;6756;51.354;15.754;2024-03-25T22:35:34;20.80;;;12.27;;
13374;SDS011;6756;51.354;15.754;2024-03-25T22:39:34;17.47;;;10.83;;
13374;SDS011;6756;51.354;15.754;2024-03-25T22:43:35;30.07;;;15.93;;
13374;SDS011;6756;51.354;15.754;2024-03-25T22:47:36;32.07;;;16.40;;
13374;SDS011;6756;51.354;15.754;2024-03-25T22:51:37;57.50;;;24.30;;
13374;SDS011;6756;51.354;15.754;2024-03-25T22:55:37;64.20;;;26.73;;
13374;SDS011;6756;51.354;15.754;2024-03-25T22:59:38;57.50;;;29.43;;
13374;SDS011;6756;51.354;15.754;2024-03-25T23:03:39;51.40;;;24.97;;
13374;SDS011;6756;51.354;15.754;2024-03-25T23:07:40;33.80;;;17.30;;
13374;SDS011;6756;51.354;15.754;2024-03-25T23:11:41;59.90;;;28.10;;
13374;SDS011;6756;51.354;15.754;2024-03-25T23:15:41;72.97;;;32.50;;
13374;SDS011;6756;51.354;15.754;2024-03-25T23:19:42;64.27;;;28.67;;
13374;SDS011;6756;51.354;15.754;2024-03-25T23:23:43;46.43;;;22.50;;
13374;SDS011;6756;51.354;15.754;2024-03-25T23:27:43;34.37;;;18.03;;
13374;SDS011;6756;51.354;15.754;2024-03-25T23:31:44;26.83;;;14.30;;
13374;SDS011;6756;51.354;15.754;2024-03-25T23:35:45;21.57;;;12.03;;
13374;SDS011;6756;51.354;15.754;2024-03-25T23:39:46;17.27;;;10.63;;
13374;SDS011;6756;51.354;15.754;2024-03-25T23:43:46;17.47;;;10.20;;
13374;SDS011;6756;51.354;15.754;2024-03-25T23:47:47;15.33;;;9.13;;
13374;SDS011;6756;51.354;15.754;2024-03-25T23:51:48;17.10;;;9.67;;
13374;SDS011;6756;51.354;15.754;2024-03-25T23:55:49;15.67;;;8.73;;
13374;SDS011;6756;51.354;15.754;2024-03-25T23:59:49;14.47;;;8.50;;
